Terminal Aerodrome Forecast
Issued by NWS

Current Version | Previous Version | Graphics & Text | Print | Product List | Glossary On
Versions: 1 2 3 4 5 6 7 8 9 10 11 12 13 14 15 16 17 18
000
FTUS41 KPBZ 060915 AAA
TAFHLG
TAF AMD
KHLG 060915Z 0609/0706 10005KT P6SM OVC120
     FM061400 13004KT P6SM -SHRA BKN040
     FM061600 19006KT 4SM -SHRA BKN025
     FM062200 21005KT P6SM BKN040=

USA.gov is the U.S. government's official web portal to all federal, state and local government web resources and services.